Time;durP1;ratioP1;P1;durP2;ratioP2;P2;SDS_P1;SDS_P2;PMS_P1;PMS_P2;Temp;Humidity;BMP_temperature;BMP_pressure;BME280_temperature;BME280_humidity;BME280_pressure;Samples;Min_cycle;Max_cycle;Signal;HPM_P1;HPM_P2
2023/12/05 00:01:01;;;;;;;22.52;19.00;;;1.00;99.90;;;;;;5004903;28;20132;-33
2023/12/05 00:03:27;;;;;;;24.73;22.13;;;1.00;99.90;;;;;;5011643;28;20057;-34
2023/12/05 00:05:52;;;;;;;24.13;21.75;;;1.10;99.90;;;;;;5007409;28;20496;-33
2023/12/05 00:08:18;;;;;;;25.38;22.83;;;1.10;99.90;;;;;;5007202;28;20050;-34
2023/12/05 00:10:44;;;;;;;21.88;16.90;;;1.00;99.90;;;;;;5009869;28;20137;-34
2023/12/05 00:13:10;;;;;;;24.45;21.85;;;1.10;99.90;;;;;;5003841;28;20056;-34
2023/12/05 00:15:36;;;;;;;31.70;28.77;;;1.10;99.90;;;;;;5005284;28;20053;-52
2023/12/05 00:18:02;;;;;;;23.80;21.30;;;1.10;99.90;;;;;;5003084;28;20484;-34
2023/12/05 00:20:28;;;;;;;22.92;20.60;;;1.00;99.90;;;;;;5004286;28;20065;-44
2023/12/05 00:22:53;;;;;;;25.00;22.65;;;1.10;99.90;;;;;;5012246;28;20077;-34
2023/12/05 00:25:19;;;;;;;24.17;21.60;;;1.10;99.90;;;;;;5005636;28;20057;-34
2023/12/05 00:27:44;;;;;;;23.85;21.08;;;1.10;99.90;;;;;;5007501;28;20054;-34
2023/12/05 00:30:11;;;;;;;26.45;23.92;;;1.10;99.90;;;;;;5003718;28;20095;-34
2023/12/05 00:32:36;;;;;;;24.05;21.70;;;1.10;99.90;;;;;;5003038;28;20214;-35
2023/12/05 00:35:03;;;;;;;23.67;21.17;;;1.10;99.90;;;;;;4999960;28;20054;-34
2023/12/05 00:37:28;;;;;;;25.75;23.15;;;1.10;99.90;;;;;;5003840;28;20050;-33
2023/12/05 00:39:54;;;;;;;22.30;19.92;;;1.10;99.90;;;;;;5008571;28;20080;-34
2023/12/05 00:42:20;;;;;;;21.50;18.95;;;1.10;99.90;;;;;;5003117;28;20399;-34
2023/12/05 00:44:45;;;;;;;20.70;18.65;;;1.10;99.90;;;;;;5002417;28;20511;-34
2023/12/05 00:47:11;;;;;;;20.35;18.35;;;1.10;99.90;;;;;;5002390;28;20058;-34
2023/12/05 00:49:37;;;;;;;21.63;19.48;;;1.10;99.90;;;;;;5004963;28;20053;-39
2023/12/05 00:52:03;;;;;;;24.00;21.45;;;1.10;99.90;;;;;;5004391;28;20574;-34
2023/12/05 00:54:29;;;;;;;21.52;19.30;;;1.10;99.90;;;;;;5008684;28;20052;-32
2023/12/05 00:56:55;;;;;;;20.85;18.63;;;1.10;99.90;;;;;;5008563;28;20049;-33
2023/12/05 00:59:21;;;;;;;23.42;21.15;;;1.10;99.90;;;;;;5008781;28;20542;-33
2023/12/05 01:01:47;;;;;;;23.02;20.92;;;1.10;99.90;;;;;;5011818;28;20050;-33
2023/12/05 01:04:12;;;;;;;19.73;17.63;;;1.00;99.90;;;;;;5007389;28;20042;-32
2023/12/05 01:06:38;;;;;;;23.40;21.02;;;1.00;99.90;;;;;;5006771;28;20071;-33
2023/12/05 01:09:06;;;;;;;21.85;19.65;;;1.00;99.90;;;;;;5007077;28;20384;-33
2023/12/05 01:11:32;;;;;;;22.50;20.40;;;1.00;99.90;;;;;;5004580;28;20053;-33
2023/12/05 01:13:57;;;;;;;20.17;18.08;;;1.00;99.90;;;;;;5006680;28;20049;-33
2023/12/05 01:16:23;;;;;;;19.42;17.45;;;1.00;99.90;;;;;;5007342;28;20491;-33
2023/12/05 01:18:49;;;;;;;20.90;18.73;;;1.00;99.90;;;;;;5012312;28;20123;-33
2023/12/05 01:21:15;;;;;;;20.98;18.42;;;1.00;99.90;;;;;;5010384;28;20045;-33
2023/12/05 01:23:41;;;;;;;22.20;20.10;;;1.00;99.90;;;;;;5007732;28;20057;-33
2023/12/05 01:26:06;;;;;;;20.52;18.52;;;1.00;99.90;;;;;;5010365;28;20061;-52
2023/12/05 01:28:32;;;;;;;23.55;21.25;;;1.00;99.90;;;;;;5006811;28;20056;-33
2023/12/05 01:30:58;;;;;;;20.83;18.88;;;0.90;99.90;;;;;;5007917;28;20695;-33
2023/12/05 01:33:24;;;;;;;19.77;17.58;;;0.90;99.90;;;;;;5006073;28;20058;-34
2023/12/05 01:35:49;;;;;;;19.77;17.75;;;1.00;99.90;;;;;;5005075;28;20088;-34
2023/12/05 01:38:18;;;;;;;20.25;18.25;;;1.00;99.90;;;;;;5006169;28;20313;-33
2023/12/05 01:40:44;;;;;;;24.85;22.55;;;0.90;99.90;;;;;;5005527;28;20528;-34
2023/12/05 01:43:10;;;;;;;21.67;19.58;;;0.90;99.90;;;;;;5005206;28;20049;-34
2023/12/05 01:45:35;;;;;;;22.83;20.70;;;0.90;99.90;;;;;;5006688;28;20065;-33
2023/12/05 01:48:03;;;;;;;23.25;21.00;;;0.90;99.90;;;;;;5006039;28;20057;-33
2023/12/05 01:50:29;;;;;;;21.17;18.88;;;0.90;99.90;;;;;;5005452;28;20057;-33
2023/12/05 01:52:59;;;;;;;21.50;19.30;;;0.90;99.90;;;;;;5009044;28;20050;-34
2023/12/05 01:55:27;;;;;;;19.27;17.27;;;0.90;99.90;;;;;;5004663;28;20050;-34
2023/12/05 01:57:54;;;;;;;25.17;22.73;;;0.90;99.90;;;;;;5004670;28;20046;-34
2023/12/05 02:00:20;;;;;;;19.88;17.77;;;0.90;99.90;;;;;;5006472;28;20495;-33
2023/12/05 02:02:47;;;;;;;21.83;19.25;;;0.90;99.90;;;;;;5005631;28;20077;-33
2023/12/05 02:05:14;;;;;;;23.75;21.40;;;0.90;99.90;;;;;;5006320;28;20053;-33
2023/12/05 02:07:41;;;;;;;20.80;18.17;;;0.90;99.90;;;;;;5003521;28;20084;-33
2023/12/05 02:10:08;;;;;;;22.98;20.67;;;0.90;99.90;;;;;;5005897;28;20080;-33
2023/12/05 02:12:36;;;;;;;23.83;21.52;;;0.90;99.90;;;;;;5003480;28;20050;-34
2023/12/05 02:15:03;;;;;;;24.58;22.23;;;0.90;99.90;;;;;;5004434;28;20097;-34
2023/12/05 02:17:53;;;;;;;24.23;21.65;;;0.90;99.90;;;;;;5005730;28;20045;-34
2023/12/05 02:21:01;;;;;;;20.98;16.85;;;0.90;99.90;;;;;;5005633;28;20049;-32
2023/12/05 02:23:46;;;;;;;21.17;18.98;;;0.90;99.90;;;;;;5002508;28;20143;-37
2023/12/05 02:26:30;;;;;;;20.15;17.23;;;0.90;99.90;;;;;;5006009;28;20050;-34
2023/12/05 02:28:56;;;;;;;20.88;17.67;;;0.90;99.90;;;;;;5007208;28;20054;-34
2023/12/05 02:31:22;;;;;;;20.90;16.35;;;0.90;99.90;;;;;;5003878;28;20393;-33
2023/12/05 02:33:49;;;;;;;24.92;22.52;;;0.90;99.90;;;;;;5005463;28;20403;-34
2023/12/05 02:36:39;;;;;;;22.85;20.55;;;0.90;99.90;;;;;;5004788;28;20061;-34
2023/12/05 02:39:14;;;;;;;19.27;16.10;;;0.90;99.90;;;;;;5005892;28;20070;-33
2023/12/05 02:41:42;;;;;;;20.70;15.80;;;0.90;99.90;;;;;;5005797;28;20523;-34
2023/12/05 02:44:15;;;;;;;26.70;23.98;;;0.90;99.90;;;;;;5006373;28;20064;-34
2023/12/05 02:46:42;;;;;;;28.20;25.42;;;0.90;99.90;;;;;;5006652;28;20145;-33
2023/12/05 02:49:10;;;;;;;19.98;16.60;;;0.90;99.90;;;;;;5004955;28;20094;-35
2023/12/05 02:51:35;;;;;;;23.63;21.13;;;0.90;99.90;;;;;;5007677;28;20057;-33
2023/12/05 02:54:05;;;;;;;23.83;21.42;;;0.90;99.90;;;;;;5005402;28;20052;-33
2023/12/05 02:56:31;;;;;;;23.73;21.25;;;0.90;99.90;;;;;;5006189;28;20522;-33
2023/12/05 02:58:57;;;;;;;23.85;21.35;;;0.90;99.90;;;;;;5008382;28;20049;-34
2023/12/05 03:01:23;;;;;;;21.55;19.27;;;0.90;99.90;;;;;;5006566;28;20058;-34
2023/12/05 03:03:49;;;;;;;24.02;21.55;;;0.90;99.90;;;;;;5006601;28;20050;-49
2023/12/05 03:06:14;;;;;;;22.75;20.38;;;0.90;99.90;;;;;;5005455;28;20050;-33
2023/12/05 03:08:40;;;;;;;22.38;18.02;;;0.90;99.90;;;;;;5006093;28;20125;-33
2023/12/05 03:11:06;;;;;;;23.23;20.77;;;0.90;99.90;;;;;;5004199;28;20072;-33
2023/12/05 03:13:31;;;;;;;26.90;24.20;;;0.90;99.90;;;;;;5005667;28;20049;-33
2023/12/05 03:15:57;;;;;;;25.77;23.08;;;0.90;99.90;;;;;;5004685;28;20064;-36
2023/12/05 03:18:24;;;;;;;22.90;20.35;;;0.90;99.90;;;;;;5005409;28;20511;-33
2023/12/05 03:20:50;;;;;;;25.80;23.02;;;0.90;99.90;;;;;;5004861;28;20072;-53
2023/12/05 03:23:18;;;;;;;24.42;21.95;;;0.90;99.90;;;;;;5005349;28;20045;-33
2023/12/05 03:25:44;;;;;;;22.33;19.77;;;0.90;99.90;;;;;;5003301;28;20131;-33
2023/12/05 03:28:10;;;;;;;24.48;19.50;;;1.00;99.90;;;;;;5005230;28;20886;-34
2023/12/05 03:30:35;;;;;;;23.10;20.05;;;1.00;99.90;;;;;;5007713;28;20062;-34
2023/12/05 03:33:01;;;;;;;21.63;19.35;;;1.00;99.90;;;;;;5005126;28;20052;-34
2023/12/05 03:35:27;;;;;;;23.33;20.83;;;1.00;99.90;;;;;;5006025;28;20144;-39
2023/12/05 03:37:52;;;;;;;22.13;18.85;;;1.00;99.90;;;;;;5004751;28;20594;-34
2023/12/05 03:40:18;;;;;;;24.25;20.88;;;1.00;99.90;;;;;;5004768;28;20073;-39
2023/12/05 03:42:44;;;;;;;22.08;18.58;;;1.00;99.90;;;;;;5008288;28;20053;-33
2023/12/05 03:45:10;;;;;;;22.70;20.30;;;1.00;99.90;;;;;;5003750;28;20050;-34
2023/12/05 03:47:35;;;;;;;24.27;21.48;;;1.00;99.90;;;;;;5004997;28;20058;-34
2023/12/05 03:50:02;;;;;;;23.73;21.42;;;1.00;99.90;;;;;;5020561;28;20053;-42
2023/12/05 03:52:27;;;;;;;22.08;19.45;;;1.00;99.90;;;;;;5005165;28;20099;-35
2023/12/05 03:54:53;;;;;;;22.35;19.13;;;1.00;99.90;;;;;;5005613;28;20478;-35
2023/12/05 03:57:19;;;;;;;23.00;20.15;;;1.00;99.90;;;;;;5004305;28;20054;-33
2023/12/05 03:59:46;;;;;;;23.42;18.67;;;1.00;99.90;;;;;;5002992;28;20137;-39
2023/12/05 04:02:12;;;;;;;24.08;21.35;;;1.00;99.90;;;;;;5004918;28;20072;-33
2023/12/05 04:04:37;;;;;;;24.33;21.73;;;1.00;99.90;;;;;;5006078;28;20046;-34
2023/12/05 04:07:04;;;;;;;25.60;21.58;;;1.00;99.90;;;;;;5007509;28;20050;-35
2023/12/05 04:09:30;;;;;;;24.88;22.17;;;1.00;99.90;;;;;;5007475;28;20189;-34
2023/12/05 04:11:56;;;;;;;21.48;18.83;;;1.00;99.90;;;;;;5003583;28;20176;-34
2023/12/05 04:14:21;;;;;;;22.92;19.63;;;1.00;99.90;;;;;;5002148;28;20045;-33
2023/12/05 04:16:47;;;;;;;25.80;23.20;;;1.00;99.90;;;;;;5004842;28;20061;-33
2023/12/05 04:19:13;;;;;;;23.63;20.90;;;1.00;99.90;;;;;;5003094;28;20663;-33
2023/12/05 04:21:38;;;;;;;21.42;19.13;;;1.00;99.90;;;;;;5004886;28;20056;-34
2023/12/05 04:24:06;;;;;;;25.58;22.88;;;1.00;99.90;;;;;;5005058;28;20046;-34
2023/12/05 04:26:32;;;;;;;24.27;21.77;;;1.00;99.90;;;;;;5002582;28;20045;-34
2023/12/05 04:28:57;;;;;;;24.15;21.67;;;1.00;99.90;;;;;;5002752;28;20182;-33
2023/12/05 04:31:29;;;;;;;25.52;22.70;;;1.00;99.90;;;;;;5004650;28;20050;-33
2023/12/05 04:33:56;;;;;;;22.50;20.10;;;1.00;99.90;;;;;;5004969;28;20077;-35
2023/12/05 04:36:24;;;;;;;24.38;21.77;;;1.00;99.90;;;;;;5005828;28;20296;-34
2023/12/05 04:38:50;;;;;;;26.85;23.92;;;1.00;99.90;;;;;;5005227;28;20073;-33
2023/12/05 04:41:15;;;;;;;22.95;20.42;;;1.00;99.90;;;;;;5003041;28;20062;-34
2023/12/05 04:43:41;;;;;;;22.83;20.00;;;1.00;99.90;;;;;;5004207;28;20064;-36
2023/12/05 04:46:06;;;;;;;23.15;20.50;;;1.00;99.90;;;;;;5000909;28;20050;-34
2023/12/05 04:48:32;;;;;;;23.45;21.08;;;1.00;99.90;;;;;;5002484;28;20133;-34
2023/12/05 04:50:58;;;;;;;23.73;21.17;;;1.00;99.90;;;;;;5004916;28;20050;-34
2023/12/05 04:53:26;;;;;;;24.13;20.52;;;1.00;99.90;;;;;;5003745;28;20061;-35
2023/12/05 04:55:51;;;;;;;23.63;19.77;;;1.00;99.90;;;;;;5005257;28;20050;-34
2023/12/05 04:58:17;;;;;;;26.73;23.83;;;1.10;99.90;;;;;;5003290;28;20050;-34
2023/12/05 05:00:43;;;;;;;25.08;20.58;;;1.10;99.90;;;;;;5005352;28;20096;-44
2023/12/05 05:03:08;;;;;;;24.55;21.65;;;1.00;99.90;;;;;;5004034;28;20046;-33
2023/12/05 05:05:34;;;;;;;24.85;22.17;;;1.10;99.90;;;;;;5004729;28;20166;-33
2023/12/05 05:07:59;;;;;;;26.10;23.30;;;1.10;99.90;;;;;;5003111;28;20049;-34
2023/12/05 05:10:25;;;;;;;25.85;21.33;;;1.10;99.90;;;;;;5002015;28;20056;-35
2023/12/05 05:12:51;;;;;;;26.27;23.38;;;1.10;99.90;;;;;;5004206;28;20050;-33
2023/12/05 05:15:16;;;;;;;25.70;23.10;;;1.10;99.90;;;;;;5003374;28;20050;-34
2023/12/05 05:17:42;;;;;;;24.50;21.77;;;1.10;99.90;;;;;;5007171;28;20076;-34
2023/12/05 05:20:08;;;;;;;24.77;21.58;;;1.00;99.90;;;;;;5004802;28;20057;-43
2023/12/05 05:22:34;;;;;;;28.13;25.27;;;1.10;99.90;;;;;;5009123;28;20073;-34
2023/12/05 05:24:59;;;;;;;28.50;24.88;;;1.10;99.90;;;;;;5007793;28;20400;-33
2023/12/05 05:27:25;;;;;;;25.55;22.40;;;1.10;99.90;;;;;;5008121;28;20100;-34
2023/12/05 05:29:51;;;;;;;24.60;21.98;;;1.00;99.90;;;;;;5004897;28;20140;-34
2023/12/05 05:32:16;;;;;;;26.88;23.98;;;1.00;99.90;;;;;;5004333;28;20077;-33
2023/12/05 05:34:42;;;;;;;26.73;23.83;;;1.00;99.90;;;;;;5003822;28;20530;-35
2023/12/05 05:37:08;;;;;;;25.70;22.25;;;1.00;99.90;;;;;;5004645;28;20792;-34
2023/12/05 05:39:33;;;;;;;25.65;22.83;;;1.00;99.90;;;;;;5005895;28;20045;-34
2023/12/05 05:41:59;;;;;;;25.83;22.98;;;1.00;99.90;;;;;;5007462;28;20057;-33
2023/12/05 05:44:25;;;;;;;27.15;24.35;;;1.00;99.90;;;;;;5007673;28;20052;-34
2023/12/05 05:46:50;;;;;;;25.92;21.95;;;1.00;99.90;;;;;;5008120;28;20565;-56
2023/12/05 05:49:16;;;;;;;27.50;24.42;;;1.00;99.90;;;;;;5007596;28;20046;-34
2023/12/05 05:51:41;;;;;;;26.10;23.23;;;1.00;99.90;;;;;;5010611;28;20407;-34
2023/12/05 05:54:07;;;;;;;26.30;22.55;;;1.00;99.90;;;;;;5007380;28;20116;-34
2023/12/05 05:56:39;;;;;;;29.40;22.55;;;1.00;99.90;;;;;;5008012;28;20493;-33
2023/12/05 05:59:05;;;;;;;27.25;24.33;;;1.00;99.90;;;;;;5008042;28;20046;-34
2023/12/05 06:01:31;;;;;;;27.70;24.75;;;1.00;99.90;;;;;;5006403;28;20046;-33
2023/12/05 06:03:56;;;;;;;22.92;20.40;;;1.00;99.90;;;;;;5007870;28;20057;-35
2023/12/05 06:06:22;;;;;;;28.15;22.42;;;1.00;99.90;;;;;;5006814;28;20085;-59
2023/12/05 06:08:48;;;;;;;28.83;25.80;;;1.00;99.90;;;;;;5009026;28;20042;-34
2023/12/05 06:11:13;;;;;;;26.27;21.23;;;1.00;99.90;;;;;;5006788;28;20554;-34
2023/12/05 06:13:39;;;;;;;26.65;23.90;;;1.00;99.90;;;;;;5008780;28;20056;-34
2023/12/05 06:16:05;;;;;;;28.67;25.20;;;1.00;99.90;;;;;;5004970;28;20542;-33
2023/12/05 06:18:31;;;;;;;27.65;24.75;;;1.00;99.90;;;;;;5002850;28;20069;-34
2023/12/05 06:20:57;;;;;;;28.35;23.88;;;1.00;99.90;;;;;;5006447;28;20082;-35
2023/12/05 06:23:23;;;;;;;28.77;24.95;;;1.00;99.90;;;;;;5006186;28;20045;-35
2023/12/05 06:25:49;;;;;;;29.13;24.88;;;1.00;99.90;;;;;;5004436;28;20054;-36
2023/12/05 06:28:14;;;;;;;30.35;24.88;;;1.00;99.90;;;;;;5007295;28;20139;-34
2023/12/05 06:30:40;;;;;;;30.27;26.20;;;1.00;99.90;;;;;;5005960;28;20061;-35
2023/12/05 06:33:06;;;;;;;28.83;25.38;;;1.00;99.90;;;;;;5008276;28;20483;-33
2023/12/05 06:35:31;;;;;;;27.55;23.35;;;1.00;99.90;;;;;;5002448;28;20108;-36
2023/12/05 06:37:57;;;;;;;27.67;22.90;;;1.00;99.90;;;;;;5005072;28;20126;-33
2023/12/05 06:40:23;;;;;;;29.50;24.55;;;1.00;99.90;;;;;;5004379;28;20143;-34
2023/12/05 06:42:49;;;;;;;29.80;26.65;;;1.00;99.90;;;;;;5004673;28;20057;-33
2023/12/05 06:45:15;;;;;;;30.95;25.92;;;1.00;99.90;;;;;;5003694;28;20060;-33
2023/12/05 06:47:40;;;;;;;28.67;25.17;;;1.00;99.90;;;;;;5004903;28;20679;-34
2023/12/05 06:50:10;;;;;;;30.55;27.42;;;1.00;99.90;;;;;;5004763;28;20167;-33
2023/12/05 06:52:37;;;;;;;32.50;26.58;;;1.00;99.90;;;;;;5005132;28;20053;-33
2023/12/05 06:55:04;;;;;;;29.67;26.45;;;1.00;99.90;;;;;;5003796;28;20152;-35
2023/12/05 06:57:30;;;;;;;29.80;23.98;;;1.00;99.90;;;;;;5003726;28;20050;-33
2023/12/05 06:59:56;;;;;;;32.85;28.70;;;1.00;99.90;;;;;;5006173;28;20097;-34
2023/12/05 07:02:21;;;;;;;34.05;28.10;;;0.90;99.90;;;;;;5002663;28;20045;-34
2023/12/05 07:04:47;;;;;;;30.83;26.40;;;0.90;99.90;;;;;;5002995;28;20041;-34
2023/12/05 07:07:13;;;;;;;33.13;28.40;;;0.90;99.90;;;;;;5006010;28;20042;-33
2023/12/05 07:09:38;;;;;;;32.25;27.10;;;0.90;99.90;;;;;;5007675;28;20048;-34
2023/12/05 07:12:04;;;;;;;27.73;24.65;;;0.90;99.90;;;;;;5004009;28;20048;-33
2023/12/05 07:14:33;;;;;;;31.63;26.67;;;0.90;99.90;;;;;;5008254;28;20488;-34
2023/12/05 07:16:58;;;;;;;32.33;26.77;;;0.90;99.90;;;;;;5005805;28;20149;-34
2023/12/05 07:19:24;;;;;;;33.83;26.45;;;0.90;99.90;;;;;;5005810;28;20482;-35
2023/12/05 07:21:50;;;;;;;34.83;26.45;;;0.90;99.90;;;;;;5010235;28;20543;-34
2023/12/05 07:24:15;;;;;;;34.97;29.20;;;1.00;99.90;;;;;;5009546;28;20063;-33
2023/12/05 07:26:41;;;;;;;33.83;28.83;;;0.90;99.90;;;;;;5006132;28;20056;-34
2023/12/05 07:29:07;;;;;;;34.58;28.60;;;0.90;99.90;;;;;;5008274;28;20042;-34
2023/12/05 07:31:33;;;;;;;32.45;26.75;;;0.90;99.90;;;;;;5010483;28;20107;-34
2023/12/05 07:33:59;;;;;;;33.63;28.02;;;0.90;99.90;;;;;;5009893;28;20077;-33
2023/12/05 07:36:24;;;;;;;31.60;27.15;;;0.90;99.90;;;;;;5008662;28;20052;-33
2023/12/05 07:38:50;;;;;;;34.30;29.10;;;0.90;99.90;;;;;;5007624;28;20161;-39
2023/12/05 07:41:20;;;;;;;30.98;25.67;;;0.90;99.90;;;;;;5006108;28;20084;-33
2023/12/05 07:43:46;;;;;;;29.70;25.98;;;0.90;99.90;;;;;;5006783;28;20597;-33
2023/12/05 07:46:12;;;;;;;32.30;28.88;;;0.90;99.90;;;;;;5006296;28;20595;-33
2023/12/05 07:48:39;;;;;;;30.67;27.45;;;0.90;99.90;;;;;;5008060;28;20520;-34
2023/12/05 07:51:05;;;;;;;34.97;27.60;;;0.90;99.90;;;;;;4999593;28;20045;-34
2023/12/05 07:53:31;;;;;;;33.08;29.35;;;0.90;99.90;;;;;;5007539;28;20060;-34
2023/12/05 07:55:56;;;;;;;33.13;28.05;;;0.90;99.90;;;;;;5005867;28;20054;-34
2023/12/05 07:58:22;;;;;;;35.17;30.23;;;0.90;99.90;;;;;;5006190;28;20050;-33
2023/12/05 08:00:47;;;;;;;33.13;27.58;;;0.90;99.90;;;;;;5011388;28;20100;-34
2023/12/05 08:03:14;;;;;;;31.23;27.65;;;0.90;99.90;;;;;;5000568;28;20058;-34
2023/12/05 08:05:40;;;;;;;31.23;25.55;;;0.90;99.90;;;;;;5002575;28;20403;-34
2023/12/05 08:08:05;;;;;;;32.30;28.67;;;1.00;99.90;;;;;;5007625;28;20058;-34
2023/12/05 08:10:31;;;;;;;32.55;27.63;;;1.00;99.90;;;;;;5006919;28;20115;-34
2023/12/05 08:12:57;;;;;;;32.13;27.35;;;1.00;99.90;;;;;;5007560;28;20060;-34
2023/12/05 08:15:23;;;;;;;34.28;29.33;;;1.00;99.90;;;;;;5005975;28;20054;-44
2023/12/05 08:17:48;;;;;;;32.35;28.90;;;1.00;99.90;;;;;;5006685;28;20192;-34
2023/12/05 08:20:14;;;;;;;33.15;28.05;;;1.00;99.90;;;;;;5016815;28;20045;-34
2023/12/05 08:22:40;;;;;;;35.75;30.15;;;1.00;99.90;;;;;;5007272;28;20049;-34
2023/12/05 08:25:08;;;;;;;33.70;28.55;;;1.00;99.90;;;;;;5008468;28;20111;-34
2023/12/05 08:27:34;;;;;;;32.25;28.45;;;1.00;99.90;;;;;;5004248;28;20502;-34
2023/12/05 08:30:02;;;;;;;35.22;30.83;;;1.00;99.90;;;;;;5014528;28;20072;-34
2023/12/05 08:32:28;;;;;;;33.40;25.08;;;1.00;99.90;;;;;;5004972;28;20590;-34
2023/12/05 08:34:53;;;;;;;33.47;26.25;;;1.00;99.90;;;;;;5003115;28;20060;-39
2023/12/05 08:37:19;;;;;;;33.78;29.45;;;1.00;99.90;;;;;;5005981;28;20511;-42
2023/12/05 08:39:45;;;;;;;36.28;30.13;;;1.00;99.90;;;;;;5007415;28;20136;-33
2023/12/05 08:42:10;;;;;;;36.28;28.60;;;1.00;99.90;;;;;;5009213;28;20061;-34
2023/12/05 08:44:36;;;;;;;37.13;28.63;;;1.00;99.90;;;;;;5010561;28;20049;-34
2023/12/05 08:47:02;;;;;;;34.10;28.08;;;1.00;99.90;;;;;;5009633;28;20050;-34
2023/12/05 08:49:28;;;;;;;34.83;28.80;;;1.00;99.90;;;;;;5002108;28;20133;-34
2023/12/05 08:51:53;;;;;;;34.60;27.88;;;1.00;99.90;;;;;;5006878;28;20057;-40
2023/12/05 08:54:19;;;;;;;33.83;29.35;;;1.10;99.90;;;;;;5002363;28;20050;-33
2023/12/05 08:56:45;;;;;;;33.65;28.52;;;1.10;99.90;;;;;;5005098;28;20080;-34
2023/12/05 08:59:10;;;;;;;33.45;29.30;;;1.10;99.90;;;;;;5006368;28;20057;-34
2023/12/05 09:01:36;;;;;;;32.85;29.35;;;1.10;99.90;;;;;;5007174;28;20069;-34
2023/12/05 09:04:02;;;;;;;34.60;29.65;;;1.10;99.90;;;;;;5006368;28;20050;-36
2023/12/05 09:06:28;;;;;;;32.22;28.80;;;1.10;99.90;;;;;;5005668;28;20053;-34
2023/12/05 09:08:54;;;;;;;32.90;28.48;;;1.10;99.90;;;;;;5006817;28;20050;-34
2023/12/05 09:11:20;;;;;;;32.33;28.45;;;1.10;99.90;;;;;;5004312;28;20045;-34
2023/12/05 09:13:46;;;;;;;35.00;30.45;;;1.10;99.90;;;;;;5010229;28;20115;-40
2023/12/05 09:16:11;;;;;;;32.97;28.40;;;1.10;99.90;;;;;;5008592;28;20053;-34
2023/12/05 09:18:37;;;;;;;35.10;30.52;;;1.10;99.90;;;;;;5010355;28;20443;-34
2023/12/05 09:21:03;;;;;;;34.30;30.23;;;1.10;99.90;;;;;;5010907;28;20058;-40
2023/12/05 09:23:29;;;;;;;35.70;31.50;;;1.20;99.90;;;;;;5010268;28;20112;-35
2023/12/05 09:25:55;;;;;;;36.13;30.63;;;1.20;99.90;;;;;;5012501;28;20041;-35
2023/12/05 09:28:20;;;;;;;33.65;29.92;;;1.20;99.90;;;;;;5009651;28;20053;-33
2023/12/05 09:30:46;;;;;;;37.22;31.50;;;1.20;99.90;;;;;;5011417;28;20484;-35
2023/12/05 09:33:12;;;;;;;38.95;32.40;;;1.20;99.90;;;;;;5010290;28;20457;-39
2023/12/05 09:35:37;;;;;;;38.20;30.73;;;1.20;99.90;;;;;;5009256;28;20595;-35
2023/12/05 09:38:04;;;;;;;35.40;30.00;;;1.30;99.90;;;;;;5009604;28;20408;-34
2023/12/05 09:40:31;;;;;;;34.92;29.70;;;1.30;99.90;;;;;;5007701;28;20484;-34
2023/12/05 09:42:59;;;;;;;38.33;30.60;;;1.30;99.90;;;;;;5023520;28;20042;-35
2023/12/05 09:45:28;;;;;;;35.30;28.83;;;1.30;99.90;;;;;;5008198;28;20054;-33
2023/12/05 09:47:59;;;;;;;35.95;30.75;;;1.30;99.90;;;;;;5010299;28;20077;-47
2023/12/05 09:50:25;;;;;;;37.17;30.60;;;1.30;99.90;;;;;;5008180;28;20568;-34
2023/12/05 09:52:51;;;;;;;33.85;29.13;;;1.30;99.90;;;;;;5011728;28;20128;-35
2023/12/05 09:55:17;;;;;;;36.33;32.53;;;1.30;99.90;;;;;;5010696;28;20064;-39
2023/12/05 09:57:43;;;;;;;34.97;30.10;;;1.30;99.90;;;;;;5007989;28;20065;-34
2023/12/05 10:00:10;;;;;;;33.33;28.38;;;1.30;99.90;;;;;;5008775;28;20042;-34
2023/12/05 10:02:37;;;;;;;35.22;31.27;;;1.40;99.90;;;;;;5011669;28;20587;-34
2023/12/05 10:05:08;;;;;;;34.00;30.13;;;1.40;99.90;;;;;;5008176;28;20133;-34
2023/12/05 10:07:34;;;;;;;38.70;31.88;;;1.40;99.90;;;;;;5008426;28;20042;-34
2023/12/05 10:10:02;;;;;;;33.38;29.42;;;1.40;99.90;;;;;;5009564;28;20104;-34
2023/12/05 10:12:28;;;;;;;34.10;30.30;;;1.40;99.90;;;;;;5007163;28;20458;-34
2023/12/05 10:14:54;;;;;;;34.22;29.95;;;1.40;99.90;;;;;;5006967;28;20046;-35
2023/12/05 10:17:21;;;;;;;33.67;29.65;;;1.40;99.90;;;;;;5010339;28;20108;-34
2023/12/05 10:19:46;;;;;;;34.08;29.63;;;1.40;99.90;;;;;;5007676;28;20062;-34
2023/12/05 10:22:12;;;;;;;34.75;30.88;;;1.40;99.90;;;;;;5010710;28;20041;-34
2023/12/05 10:24:41;;;;;;;35.42;31.67;;;1.50;99.90;;;;;;5007154;28;20045;-34
2023/12/05 10:27:07;;;;;;;34.15;29.33;;;1.50;99.90;;;;;;5006888;28;20466;-34
2023/12/05 10:29:40;;;;;;;33.22;29.75;;;1.50;99.90;;;;;;5023786;28;20053;-34
2023/12/05 10:32:08;;;;;;;35.15;31.45;;;1.50;99.90;;;;;;5003706;28;20415;-34
2023/12/05 10:34:52;;;;;;;33.55;29.88;;;1.60;99.90;;;;;;5007210;28;20065;-34
2023/12/05 10:37:27;;;;;;;33.70;30.08;;;1.60;99.90;;;;;;5006903;28;20099;-34
2023/12/05 10:39:55;;;;;;;34.78;31.08;;;1.60;99.90;;;;;;5011141;28;20419;-34
2023/12/05 10:42:24;;;;;;;31.33;27.67;;;1.70;99.90;;;;;;5010505;28;20046;-34
2023/12/05 10:44:50;;;;;;;34.70;29.83;;;1.70;99.90;;;;;;5024153;28;20046;-35
2023/12/05 10:47:16;;;;;;;34.05;30.40;;;1.70;99.90;;;;;;5008008;28;20049;-35
2023/12/05 10:49:42;;;;;;;33.45;29.95;;;1.70;99.90;;;;;;5011212;28;20211;-34
2023/12/05 10:52:11;;;;;;;33.70;30.02;;;1.80;99.90;;;;;;5003345;28;20049;-42
2023/12/05 10:54:39;;;;;;;33.78;30.15;;;1.80;99.90;;;;;;5006191;28;20401;-34
2023/12/05 10:57:10;;;;;;;34.40;30.95;;;1.80;99.90;;;;;;5009100;28;20428;-35
2023/12/05 10:59:38;;;;;;;33.43;30.03;;;1.80;99.90;;;;;;5007886;28;20057;-36
2023/12/05 11:02:14;;;;;;;31.38;28.15;;;1.80;99.90;;;;;;5009437;28;20491;-34
2023/12/05 11:04:41;;;;;;;30.30;26.73;;;1.80;99.90;;;;;;5005042;28;20050;-34
2023/12/05 11:07:11;;;;;;;30.40;27.10;;;1.80;99.90;;;;;;5008660;28;20057;-35
2023/12/05 11:09:41;;;;;;;29.67;26.08;;;1.90;99.90;;;;;;5000479;28;20122;-34
2023/12/05 11:12:08;;;;;;;29.20;25.88;;;1.90;99.90;;;;;;5011745;28;20140;-35
2023/12/05 11:14:39;;;;;;;29.13;26.02;;;1.90;99.90;;;;;;5007923;28;20053;-34
2023/12/05 11:17:09;;;;;;;27.98;25.17;;;1.90;99.90;;;;;;5005683;28;20144;-36
2023/12/05 11:19:56;;;;;;;28.35;25.30;;;1.90;99.90;;;;;;5003775;28;20053;-34
2023/12/05 11:22:40;;;;;;;28.75;25.75;;;1.90;99.90;;;;;;5004861;28;20854;-35
2023/12/05 11:26:00;;;;;;;28.17;23.23;;;1.80;99.90;;;;;;5006151;28;20137;-35
2023/12/05 11:28:52;;;;;;;26.33;22.67;;;1.80;99.90;;;;;;5003084;28;20062;-34
2023/12/05 11:32:01;;;;;;;28.30;25.30;;;1.80;99.90;;;;;;4999454;28;20492;-35
2023/12/05 11:34:58;;;;;;;29.77;26.55;;;1.70;99.90;;;;;;4997727;28;20058;-33
2023/12/05 11:37:33;;;;;;;29.20;25.83;;;1.70;99.90;;;;;;5003557;28;20053;-39
2023/12/05 11:39:59;;;;;;;29.25;24.73;;;1.70;99.90;;;;;;5010234;28;20052;-35
2023/12/05 11:42:25;;;;;;;30.33;23.13;;;1.70;99.90;;;;;;5012398;28;20049;-35
2023/12/05 11:44:50;;;;;;;28.95;22.52;;;1.60;99.90;;;;;;5008836;28;20051;-34
2023/12/05 11:47:22;;;;;;;27.63;22.95;;;1.60;99.90;;;;;;5005231;28;20141;-34
2023/12/05 11:49:49;;;;;;;29.85;24.48;;;1.60;99.90;;;;;;4996702;28;20054;-34
2023/12/05 11:52:16;;;;;;;31.75;22.63;;;1.50;99.90;;;;;;4996489;28;20554;-34
2023/12/05 11:54:42;;;;;;;28.40;21.40;;;1.60;99.90;;;;;;5007684;28;20121;-34
2023/12/05 11:57:19;;;;;;;29.88;22.23;;;1.50;99.90;;;;;;5006917;28;20053;-34
2023/12/05 11:59:46;;;;;;;31.88;25.17;;;1.50;99.90;;;;;;5010976;28;20053;-34
2023/12/05 12:02:25;;;;;;;30.58;22.63;;;1.50;99.90;;;;;;5015016;28;20057;-35
2023/12/05 12:05:20;;;;;;;29.33;24.48;;;1.50;99.90;;;;;;5007610;28;20050;-35
2023/12/05 12:07:50;;;;;;;28.48;21.63;;;1.50;99.90;;;;;;5002624;28;20048;-35
2023/12/05 12:10:18;;;;;;;27.17;22.70;;;1.50;99.90;;;;;;5011658;28;20048;-35
2023/12/05 12:12:45;;;;;;;28.75;22.20;;;1.50;99.90;;;;;;5009332;28;20054;-35
2023/12/05 12:15:12;;;;;;;29.58;23.45;;;1.50;99.90;;;;;;5010603;28;20064;-35
2023/12/05 12:17:42;;;;;;;31.17;23.08;;;1.50;99.90;;;;;;5012519;28;20690;-35
2023/12/05 12:20:11;;;;;;;30.45;24.02;;;1.50;99.90;;;;;;5006708;28;20488;-35
2023/12/05 12:22:37;;;;;;;31.52;22.60;;;1.40;99.90;;;;;;5006699;28;20507;-35
2023/12/05 12:25:05;;;;;;;29.65;23.25;;;1.40;99.90;;;;;;5004455;28;20057;-34
2023/12/05 12:27:34;;;;;;;29.30;23.83;;;1.40;99.90;;;;;;5006128;28;20484;-34
2023/12/05 12:30:00;;;;;;;27.20;23.40;;;1.50;99.90;;;;;;5009475;28;20490;-34
2023/12/05 12:32:25;;;;;;;29.25;20.98;;;1.40;99.90;;;;;;5008704;28;20038;-34
2023/12/05 12:34:51;;;;;;;27.30;21.45;;;1.40;99.90;;;;;;5012706;28;20057;-35
2023/12/05 12:37:17;;;;;;;27.83;20.88;;;1.40;99.90;;;;;;5008217;28;20081;-35